Aeroporto :
LOGIN :

Iscrizione | Disclaimer

   EN    FR    IT 

 










Sommario :    VFR   VFR Marginale   IFR   IFR Intensivo   IFR Molto Intensivo
Visibilità : 
Base nubi : 
>= 8 km
>= 3000ft
5 / 8 km
1000 / 3000 ft
1500m / 5 km
500 / 1000 ft
800 / 1500m
200 / 500 ft
< 800m
< 200 ft
Simboli :   Temporali  Nebbia  Neve Forte  Precipitazioni Forti  Vento > 20 kt
SIGMETs :   Varie  Temporali  Ghiacco  Turbolenza  Onda orograficha  Ceneri Vulcaniche






- Altitudine del aeroporto : 499 ft
- Codice IATA : TLS


LFBO - Toulouse / Blagnac

ULTIMO METAR :
  • 190700Z AUTO 12005KT 080V140 9999 FEW018 13/12 Q1009 TEMPO BKN012

METARs OBSOLETI :
  • 190630Z AUTO 00000KT 9999 BKN017 13/12 Q1009 TEMPO BKN012
  • 190600Z AUTO VRB03KT 9999 OVC017 13/12 Q1009 TEMPO BKN012
  • 190530Z AUTO VRB02KT 9999 OVC018 13/12 Q1009 TEMPO BKN012
  • 190500Z AUTO 02003KT 9999 OVC018 13/12 Q1009 TEMPO OVC010
  • 190430Z AUTO 34005KT 9999 OVC017 13/12 Q1009 TEMPO OVC010

TAF TAF LFBO
Valido dal 19 a 06 ore il 20 a 12 ore UTC


190500Z 1906/2012 VRB05KT 9999 BKN018
PROB30
TEMPO 1906/1908 BKN012
BECMG 1908/1910 06006KT SCT025
BECMG 1911/1913 CAVOK
BECMG 2000/2003 12010KT
TEMPO 2003/2008 BKN010
ATIS : +33 5 62 74 66 36



MetMap, La meteo Aeronautica in un colpo d'occhio ! - Copyright ORBIFLY Dicembre 2007 - Disclaimer

ORBIFLY MET'MAP TEAM :

Programmazione e sviluppo : Alexandra Zaïnal
Concezione e sviluppo : Baudouin d'Aumeries
Co-Programmazione e sviluppo : Marc-Olivier Méhu
Supporto tecnico e logistico : Manuel Goepfert
Aiuto per la traduzione : Arnaldo La Scala

Contatto : metmap@orbifly.com




FONTI E CREDITI :

   NOAA